createdAt,value
2023-09-11T00:01:19.904Z,7.53
2023-09-11T00:03:46.940Z,7.20
2023-09-11T00:06:13.437Z,7.28
2023-09-11T00:08:40.054Z,7.13
2023-09-11T00:11:06.854Z,7.40
2023-09-11T00:13:33.434Z,6.78
2023-09-11T00:16:00.042Z,6.95
2023-09-11T00:18:26.938Z,6.68
2023-09-11T00:20:53.623Z,6.63
2023-09-11T00:23:20.285Z,6.97
2023-09-11T00:25:46.995Z,6.75
2023-09-11T00:28:13.520Z,6.72
2023-09-11T00:30:40.043Z,6.85
2023-09-11T00:33:06.741Z,6.65
2023-09-11T00:35:33.345Z,6.07
2023-09-11T00:37:59.817Z,6.53
2023-09-11T00:40:26.332Z,6.20
2023-09-11T00:42:52.825Z,6.05
2023-09-11T00:45:19.397Z,5.93
2023-09-11T00:47:47.732Z,6.00
2023-09-11T00:50:17.147Z,5.90
2023-09-11T00:52:44.585Z,5.93
2023-09-11T00:55:11.580Z,6.70
2023-09-11T00:57:38.262Z,6.15
2023-09-11T01:00:05.625Z,6.05
2023-09-11T01:02:32.329Z,5.75
2023-09-11T01:05:00.312Z,6.43
2023-09-11T01:07:27.157Z,5.78
2023-09-11T01:09:53.911Z,5.65
2023-09-11T01:12:20.488Z,5.50
2023-09-11T01:14:47.060Z,6.20
2023-09-11T01:17:22.635Z,5.70
2023-09-11T01:20:22.141Z,5.47
2023-09-11T01:23:07.647Z,6.05
2023-09-11T01:25:55.796Z,5.53
2023-09-11T01:28:34.340Z,5.63
2023-09-11T01:31:01.937Z,5.78
2023-09-11T01:33:28.618Z,6.05
2023-09-11T01:35:55.161Z,6.38
2023-09-11T01:38:22.129Z,5.57
2023-09-11T01:40:53.864Z,5.50
2023-09-11T01:43:22.335Z,5.30
2023-09-11T01:45:49.687Z,5.68
2023-09-11T01:48:16.949Z,5.68
2023-09-11T01:50:45.147Z,5.25
2023-09-11T01:53:12.468Z,5.18
2023-09-11T01:55:39.526Z,5.82
2023-09-11T01:58:06.104Z,5.47
2023-09-11T02:00:32.554Z,5.68
2023-09-11T02:02:59.314Z,5.63
2023-09-11T02:05:25.918Z,5.32
2023-09-11T02:07:52.430Z,5.50
2023-09-11T02:10:18.899Z,5.40
2023-09-11T02:12:45.400Z,5.47
2023-09-11T02:15:11.846Z,5.15
2023-09-11T02:17:38.605Z,5.28
2023-09-11T02:20:06.133Z,5.03
2023-09-11T02:22:32.619Z,4.88
2023-09-11T02:24:59.105Z,5.20
2023-09-11T02:27:25.549Z,5.40
2023-09-11T02:29:52.189Z,4.70
2023-09-11T02:32:18.697Z,5.30
2023-09-11T02:34:45.223Z,4.95
2023-09-11T02:37:11.747Z,4.68
2023-09-11T02:39:38.213Z,4.68
2023-09-11T02:42:04.880Z,4.50
2023-09-11T02:44:31.460Z,5.00
2023-09-11T02:46:57.925Z,4.90
2023-09-11T02:49:24.382Z,5.03
2023-09-11T02:51:50.853Z,5.05
2023-09-11T02:54:17.351Z,5.05
2023-09-11T02:56:43.826Z,5.15
2023-09-11T02:59:10.326Z,4.40
2023-09-11T03:01:36.804Z,4.75
2023-09-11T03:04:03.514Z,4.70
2023-09-11T03:06:31.541Z,4.82
2023-09-11T03:08:58.063Z,4.80
2023-09-11T03:11:24.556Z,5.15
2023-09-11T03:13:51.031Z,4.90
2023-09-11T03:16:17.804Z,4.68
2023-09-11T03:18:44.792Z,4.65
2023-09-11T03:21:11.634Z,4.70
2023-09-11T03:23:38.336Z,4.90
2023-09-11T03:26:12.885Z,4.95
2023-09-11T03:28:39.584Z,4.65
2023-09-11T03:31:06.335Z,4.78
2023-09-11T03:33:32.969Z,4.82
2023-09-11T03:35:59.567Z,4.88
2023-09-11T03:38:26.291Z,4.93
2023-09-11T03:40:52.809Z,4.60
2023-09-11T03:43:19.282Z,4.65
2023-09-11T03:45:45.762Z,4.70
2023-09-11T03:48:12.313Z,4.60
2023-09-11T03:50:38.866Z,4.78
2023-09-11T03:53:05.385Z,4.50
2023-09-11T03:55:31.942Z,4.57
2023-09-11T03:57:58.714Z,4.30
2023-09-11T04:00:25.190Z,4.75
2023-09-11T04:02:51.715Z,4.50
2023-09-11T04:05:18.281Z,4.88
2023-09-11T04:07:44.949Z,4.60
2023-09-11T04:10:11.402Z,4.60
2023-09-11T04:12:37.855Z,4.30
2023-09-11T04:15:04.765Z,4.80
2023-09-11T04:17:31.326Z,4.43
2023-09-11T04:20:00.493Z,4.63
2023-09-11T04:22:26.963Z,4.55
2023-09-11T04:24:53.504Z,4.60
2023-09-11T04:27:19.992Z,4.50
2023-09-11T04:29:46.615Z,4.50
2023-09-11T04:32:13.180Z,4.72
2023-09-11T04:34:39.746Z,5.20
2023-09-11T04:37:06.331Z,4.63
2023-09-11T04:39:32.761Z,4.40
2023-09-11T04:41:59.217Z,4.70
2023-09-11T04:44:25.784Z,4.82
2023-09-11T04:46:52.253Z,4.82
2023-09-11T04:49:18.746Z,5.13
2023-09-11T04:51:45.194Z,5.05
2023-09-11T04:54:11.636Z,5.05
2023-09-11T04:56:38.102Z,5.45
2023-09-11T04:59:04.582Z,5.90
2023-09-11T05:01:31.078Z,5.90
2023-09-11T05:03:57.710Z,6.40
2023-09-11T05:06:24.360Z,6.60
2023-09-11T05:09:10.793Z,6.90
2023-09-11T05:11:37.267Z,7.32
2023-09-11T05:14:03.759Z,7.25
2023-09-11T05:16:30.206Z,8.40
2023-09-11T05:18:56.681Z,8.15
2023-09-11T05:21:23.101Z,7.03
2023-09-11T05:23:49.546Z,7.88
2023-09-11T05:26:16.201Z,8.93
2023-09-11T05:28:42.978Z,7.85
2023-09-11T05:31:09.737Z,8.38
2023-09-11T05:33:36.429Z,9.10
2023-09-11T05:36:03.514Z,9.77
2023-09-11T05:38:30.077Z,9.93
2023-09-11T05:40:56.566Z,9.95
2023-09-11T05:43:23.073Z,9.25
2023-09-11T05:45:49.641Z,9.90
2023-09-11T05:48:16.201Z,9.45
2023-09-11T05:50:42.764Z,9.98
2023-09-11T05:53:09.320Z,8.77
2023-09-11T05:55:36.019Z,9.65
2023-09-11T05:58:02.602Z,9.32
2023-09-11T06:00:29.333Z,9.07
2023-09-11T06:02:55.997Z,8.45
2023-09-11T06:05:23.479Z,9.10
2023-09-11T06:07:50.119Z,8.50
2023-09-11T06:10:16.566Z,9.45
2023-09-11T06:12:43.073Z,8.75
2023-09-11T06:15:10.144Z,8.85
2023-09-11T06:17:44.485Z,8.52
2023-09-11T06:20:12.699Z,9.02
2023-09-11T06:22:39.301Z,9.23
2023-09-11T06:25:06.294Z,7.97
2023-09-11T06:27:32.767Z,8.27
2023-09-11T06:29:59.242Z,8.77
2023-09-11T06:32:25.837Z,9.05
2023-09-11T06:34:52.305Z,9.23
2023-09-11T06:37:18.858Z,9.05
2023-09-11T06:39:45.331Z,8.70
2023-09-11T06:42:22.995Z,9.35
2023-09-11T06:44:51.859Z,9.63
2023-09-11T06:47:18.912Z,9.32
2023-09-11T06:49:45.526Z,9.13
2023-09-11T06:52:12.048Z,8.63
2023-09-11T06:54:38.513Z,8.45
2023-09-11T06:57:05.971Z,8.43
2023-09-11T06:59:32.590Z,8.35
2023-09-11T07:01:59.087Z,8.50
2023-09-11T07:04:25.841Z,9.55
2023-09-11T07:06:52.462Z,8.55
2023-09-11T07:09:18.921Z,8.60
2023-09-11T07:11:45.425Z,8.07
2023-09-11T07:14:11.881Z,8.13
2023-09-11T07:16:38.331Z,8.32
2023-09-11T07:19:04.789Z,8.45
2023-09-11T07:21:31.231Z,8.18
2023-09-11T07:23:57.892Z,7.80
2023-09-11T07:26:24.487Z,8.40
2023-09-11T07:29:01.602Z,7.90
2023-09-11T07:31:28.175Z,7.55
2023-09-11T07:33:54.725Z,7.35
2023-09-11T07:36:22.510Z,6.50
2023-09-11T07:38:49.132Z,6.15
2023-09-11T07:41:17.391Z,6.78
2023-09-11T07:43:44.492Z,5.78
2023-09-11T07:46:10.948Z,5.50
2023-09-11T07:48:37.453Z,5.35
2023-09-11T07:51:04.152Z,4.80
2023-09-11T07:53:30.636Z,4.78
2023-09-11T07:55:57.660Z,4.68
2023-09-11T07:58:24.862Z,4.32
2023-09-11T08:00:52.065Z,5.03
2023-09-11T08:03:19.358Z,4.07
2023-09-11T08:05:45.952Z,4.10
2023-09-11T08:08:12.522Z,4.22
2023-09-11T08:10:38.994Z,3.97
2023-09-11T08:13:05.506Z,4.00
2023-09-11T08:15:32.094Z,3.60
2023-09-11T08:17:58.589Z,3.58
2023-09-11T08:20:25.138Z,3.80
2023-09-11T08:22:51.656Z,3.53
2023-09-11T08:25:18.190Z,4.00
2023-09-11T08:27:44.728Z,3.60
2023-09-11T08:30:11.490Z,3.92
2023-09-11T08:32:38.035Z,3.47
2023-09-11T08:35:04.897Z,3.55
2023-09-11T08:37:31.622Z,3.35
2023-09-11T08:39:58.060Z,3.30
2023-09-11T08:42:24.560Z,3.10
2023-09-11T08:44:51.083Z,3.20
2023-09-11T08:47:20.697Z,2.80
2023-09-11T08:49:56.142Z,2.90
2023-09-11T08:52:22.676Z,3.00
2023-09-11T08:54:53.131Z,3.10
2023-09-11T08:57:22.946Z,2.80
2023-09-11T08:59:57.034Z,3.05
2023-09-11T09:04:52.090Z,3.00
2023-09-11T09:07:19.683Z,2.75
2023-09-11T09:09:46.732Z,2.88
2023-09-11T09:12:13.506Z,2.78
2023-09-11T09:14:40.119Z,2.90
2023-09-11T09:17:07.574Z,2.83
2023-09-11T09:19:34.146Z,3.03
2023-09-11T09:22:03.592Z,2.70
2023-09-11T09:24:30.060Z,2.70
2023-09-11T09:27:02.252Z,3.10
2023-09-11T09:29:38.860Z,3.03
2023-09-11T09:32:07.810Z,3.00
2023-09-11T09:34:35.725Z,3.10
2023-09-11T09:37:02.885Z,3.00
2023-09-11T09:39:30.352Z,3.47
2023-09-11T09:41:59.764Z,3.13
2023-09-11T09:44:29.942Z,3.47
2023-09-11T09:46:56.496Z,3.30
2023-09-11T09:49:23.321Z,3.35
2023-09-11T09:51:49.828Z,3.40
2023-09-11T09:54:16.299Z,3.65
2023-09-11T09:56:43.288Z,3.45
2023-09-11T09:59:09.876Z,3.65
2023-09-11T10:01:45.738Z,3.65
2023-09-11T10:04:16.131Z,3.28
2023-09-11T10:06:42.672Z,3.63
2023-09-11T10:09:12.966Z,3.67
2023-09-11T10:11:41.946Z,3.05
2023-09-11T10:14:10.111Z,3.58
2023-09-11T10:16:36.790Z,3.42
2023-09-11T10:19:04.101Z,3.17
2023-09-11T10:21:31.858Z,3.80
2023-09-11T10:23:58.669Z,3.70
2023-09-11T10:26:34.245Z,3.55
2023-09-11T10:29:04.936Z,3.60
2023-09-11T10:31:44.062Z,3.30
2023-09-11T10:34:11.301Z,3.70
2023-09-11T10:36:40.482Z,3.97
2023-09-11T10:39:11.102Z,3.72
2023-09-11T10:41:38.081Z,3.60
2023-09-11T10:44:05.042Z,3.55
2023-09-11T10:46:38.451Z,3.40
2023-09-11T10:49:16.692Z,3.08
2023-09-11T10:51:43.688Z,3.45
2023-09-11T10:54:12.849Z,4.07
2023-09-11T10:56:39.625Z,4.13
2023-09-11T10:59:06.277Z,4.50
2023-09-11T11:01:33.821Z,4.57
2023-09-11T11:04:04.787Z,4.35
2023-09-11T11:06:31.791Z,4.45
2023-09-11T11:08:58.781Z,4.85
2023-09-11T11:11:26.128Z,4.70
2023-09-11T11:14:12.737Z,4.80
2023-09-11T11:16:40.236Z,4.38
2023-09-11T11:19:07.077Z,4.95
2023-09-11T11:21:40.887Z,5.00
2023-09-11T11:24:10.370Z,4.75
2023-09-11T11:26:37.544Z,5.35
2023-09-11T11:29:04.512Z,5.25
2023-09-11T11:31:32.903Z,5.60
2023-09-11T11:34:00.979Z,5.65
2023-09-11T11:36:28.365Z,5.38
2023-09-11T11:38:55.037Z,5.35
2023-09-11T11:41:21.970Z,4.78
2023-09-11T11:43:49.318Z,6.03
2023-09-11T11:46:16.396Z,6.50
2023-09-11T11:48:45.920Z,6.05
2023-09-11T11:51:12.748Z,6.20
2023-09-11T11:53:40.531Z,6.10
2023-09-11T11:56:07.130Z,6.05
2023-09-11T11:58:35.789Z,5.68
2023-09-11T12:01:05.402Z,5.82
2023-09-11T12:03:45.131Z,6.35
2023-09-11T12:06:12.363Z,5.75
2023-09-11T12:08:39.046Z,7.10
2023-09-11T12:11:08.208Z,5.80
2023-09-11T12:13:49.023Z,6.38
2023-09-11T12:16:17.069Z,6.43
2023-09-11T12:18:43.853Z,6.07
2023-09-11T12:21:10.814Z,5.60
2023-09-11T12:23:37.437Z,5.85
2023-09-11T12:26:04.961Z,5.40
2023-09-11T12:28:31.896Z,5.20
2023-09-11T12:30:58.678Z,5.40
2023-09-11T12:33:28.251Z,5.22
2023-09-11T12:35:57.816Z,5.07
2023-09-11T12:38:24.721Z,5.25
2023-09-11T12:40:54.078Z,5.28
2023-09-11T12:43:22.589Z,5.30
2023-09-11T12:45:49.442Z,5.32
2023-09-11T12:48:18.373Z,5.28
2023-09-11T12:50:45.196Z,4.95
2023-09-11T12:53:11.760Z,4.78
2023-09-11T12:55:38.961Z,5.38
2023-09-11T12:58:05.822Z,5.03
2023-09-11T13:00:34.612Z,4.97
2023-09-11T13:03:04.970Z,5.13
2023-09-11T13:05:32.081Z,5.22
2023-09-11T13:08:00.067Z,5.05
2023-09-11T13:10:27.527Z,5.03
2023-09-11T13:12:54.060Z,5.03
2023-09-11T13:15:20.756Z,5.05
2023-09-11T13:17:47.493Z,5.15
2023-09-11T13:20:14.284Z,5.07
2023-09-11T13:22:43.877Z,5.28
2023-09-11T13:25:11.156Z,4.80
2023-09-11T13:27:37.998Z,5.40
2023-09-11T13:30:05.048Z,4.88
2023-09-11T13:32:31.597Z,5.70
2023-09-11T13:34:58.089Z,5.50
2023-09-11T13:37:24.543Z,4.90
2023-09-11T13:39:50.992Z,4.97
2023-09-11T13:42:17.463Z,5.18
2023-09-11T13:44:43.951Z,5.05
2023-09-11T13:47:10.501Z,5.50
2023-09-11T13:49:36.922Z,5.13
2023-09-11T13:52:03.478Z,5.38
2023-09-11T13:54:30.008Z,4.88
2023-09-11T13:56:56.516Z,5.10
2023-09-11T13:59:22.968Z,5.20
2023-09-11T14:01:49.487Z,4.78
2023-09-11T14:04:16.172Z,5.10
2023-09-11T14:06:43.195Z,5.05
2023-09-11T14:09:09.796Z,5.10
2023-09-11T14:11:36.370Z,5.20
2023-09-11T14:14:02.904Z,5.03
2023-09-11T14:16:29.542Z,4.90
2023-09-11T14:18:56.063Z,5.00
2023-09-11T14:21:22.643Z,4.88
2023-09-11T14:23:49.223Z,4.80
2023-09-11T14:26:15.673Z,4.85
2023-09-11T14:28:42.250Z,4.95
2023-09-11T14:31:08.979Z,4.95
2023-09-11T14:33:35.482Z,4.85
2023-09-11T14:36:01.990Z,4.95
2023-09-11T14:38:28.493Z,5.18
2023-09-11T14:40:55.682Z,4.82
2023-09-11T14:43:22.146Z,5.00
2023-09-11T14:45:48.594Z,5.53
2023-09-11T14:48:15.113Z,5.78
2023-09-11T14:50:41.708Z,6.72
2023-09-11T14:53:08.296Z,6.20
2023-09-11T14:55:34.783Z,6.55
2023-09-11T14:58:01.224Z,7.05
2023-09-11T15:00:27.760Z,7.85
2023-09-11T15:02:54.338Z,7.35
2023-09-11T15:05:21.189Z,7.40
2023-09-11T15:07:47.724Z,7.18
2023-09-11T15:10:14.194Z,7.45
2023-09-11T15:12:40.613Z,8.23
2023-09-11T15:15:07.614Z,9.32
2023-09-11T15:17:34.148Z,8.55
2023-09-11T15:20:00.636Z,9.13
2023-09-11T15:22:27.095Z,8.75
2023-09-11T15:24:53.585Z,9.35
2023-09-11T15:27:20.149Z,8.13
2023-09-11T15:29:46.803Z,8.15
2023-09-11T15:32:13.434Z,8.27
2023-09-11T15:34:40.723Z,7.93
2023-09-11T15:37:14.303Z,7.43
2023-09-11T15:39:41.256Z,7.57
2023-09-11T15:42:08.073Z,7.50
2023-09-11T15:44:34.562Z,7.82
2023-09-11T15:47:01.015Z,7.72
2023-09-11T15:49:27.457Z,7.07
2023-09-11T15:51:53.901Z,6.75
2023-09-11T15:54:20.525Z,7.40
2023-09-11T15:56:47.771Z,7.28
2023-09-11T15:59:14.294Z,7.43
2023-09-11T16:01:40.753Z,7.05
2023-09-11T16:04:07.290Z,6.75
2023-09-11T16:06:33.822Z,7.05
2023-09-11T16:09:00.327Z,7.80
2023-09-11T16:11:26.886Z,7.43
2023-09-11T16:13:53.323Z,6.55
2023-09-11T16:16:19.868Z,7.15
2023-09-11T16:18:46.412Z,7.22
2023-09-11T16:21:17.251Z,7.18
2023-09-11T16:23:52.120Z,7.50
2023-09-11T16:26:18.654Z,6.82
2023-09-11T16:28:45.148Z,7.70
2023-09-11T16:31:11.749Z,7.03
2023-09-11T16:33:38.493Z,7.35
2023-09-11T16:36:05.224Z,7.18
2023-09-11T16:38:31.719Z,7.10
2023-09-11T16:40:58.163Z,6.78
2023-09-11T16:43:24.641Z,7.00
2023-09-11T16:45:51.210Z,7.13
2023-09-11T16:48:17.804Z,7.00
2023-09-11T16:50:44.415Z,7.38
2023-09-11T16:53:10.910Z,7.03
2023-09-11T16:55:37.404Z,7.30
2023-09-11T16:58:04.102Z,7.03
2023-09-11T17:00:30.619Z,7.32
2023-09-11T17:02:57.205Z,7.30
2023-09-11T17:05:23.801Z,7.00
2023-09-11T17:07:50.256Z,7.10
2023-09-11T17:10:16.738Z,6.97
2023-09-11T17:12:43.218Z,7.95
2023-09-11T17:15:09.985Z,6.95
2023-09-11T17:17:38.006Z,7.18
2023-09-11T17:20:05.065Z,7.55
2023-09-11T17:22:31.604Z,7.10
2023-09-11T17:24:58.148Z,7.65
2023-09-11T17:27:24.638Z,7.47
2023-09-11T17:29:51.181Z,6.88
2023-09-11T17:32:17.708Z,7.07
2023-09-11T17:34:44.130Z,7.15
2023-09-11T17:37:10.650Z,7.75
2023-09-11T17:39:37.145Z,7.30
2023-09-11T17:42:03.760Z,7.35
2023-09-11T17:44:30.232Z,7.80
2023-09-11T17:46:56.727Z,6.82
2023-09-11T17:49:23.169Z,7.22
2023-09-11T17:51:49.703Z,7.70
2023-09-11T17:54:16.378Z,7.88
2023-09-11T17:56:42.915Z,7.95
2023-09-11T17:59:09.406Z,7.72
2023-09-11T18:01:35.925Z,7.38
2023-09-11T18:04:02.610Z,7.65
2023-09-11T18:06:29.263Z,7.68
2023-09-11T18:08:55.926Z,7.40
2023-09-11T18:11:22.730Z,7.53
2023-09-11T18:13:49.193Z,7.70
2023-09-11T18:16:15.781Z,7.93
2023-09-11T18:18:42.571Z,7.90
2023-09-11T18:21:09.205Z,7.72
2023-09-11T18:23:35.671Z,7.80
2023-09-11T18:26:02.136Z,7.15
2023-09-11T18:28:28.586Z,7.35
2023-09-11T18:30:55.093Z,6.80
2023-09-11T18:33:21.692Z,7.28
2023-09-11T18:35:50.584Z,6.38
2023-09-11T18:38:17.519Z,6.65
2023-09-11T18:40:45.022Z,7.30
2023-09-11T18:43:11.914Z,6.95
2023-09-11T18:45:38.364Z,6.93
2023-09-11T18:48:05.078Z,7.10
2023-09-11T18:50:31.618Z,7.28
2023-09-11T18:52:58.029Z,7.10
2023-09-11T18:55:24.510Z,6.93
2023-09-11T18:57:50.916Z,7.18
2023-09-11T19:00:17.646Z,6.75
2023-09-11T19:02:44.155Z,6.47
2023-09-11T19:05:10.693Z,6.47
2023-09-11T19:07:37.198Z,6.80
2023-09-11T19:10:03.944Z,6.50
2023-09-11T19:12:30.422Z,6.15
2023-09-11T19:14:56.952Z,6.35
2023-09-11T19:17:23.440Z,5.80
2023-09-11T19:19:49.879Z,6.03
2023-09-11T19:22:16.447Z,6.18
2023-09-11T19:24:42.942Z,6.57
2023-09-11T19:27:09.461Z,6.70
2023-09-11T19:29:35.911Z,6.65
2023-09-11T19:32:02.681Z,6.55
2023-09-11T19:34:29.221Z,6.45
2023-09-11T19:36:55.706Z,6.05
2023-09-11T19:39:22.271Z,6.40
2023-09-11T19:41:48.853Z,6.10
2023-09-11T19:44:15.801Z,6.50
2023-09-11T19:46:42.254Z,6.15
2023-09-11T19:49:08.692Z,5.85
2023-09-11T19:51:35.138Z,6.05
2023-09-11T19:54:01.638Z,6.20
2023-09-11T19:56:28.128Z,6.18
2023-09-11T19:58:54.595Z,5.97
2023-09-11T20:01:21.103Z,6.38
2023-09-11T20:03:47.850Z,6.30
2023-09-11T20:06:14.479Z,6.60
2023-09-11T20:08:41.320Z,6.82
2023-09-11T20:11:08.013Z,6.55
2023-09-11T20:13:34.458Z,6.13
2023-09-11T20:16:00.952Z,6.55
2023-09-11T20:18:27.523Z,6.25
2023-09-11T20:20:54.087Z,6.32
2023-09-11T20:23:20.577Z,6.50
2023-09-11T20:25:47.002Z,6.50
2023-09-11T20:28:13.522Z,6.03
2023-09-11T20:30:39.949Z,6.10
2023-09-11T20:33:06.538Z,6.57
2023-09-11T20:35:33.076Z,6.22
2023-09-11T20:37:59.509Z,6.30
2023-09-11T20:40:26.097Z,6.43
2023-09-11T20:42:52.590Z,6.43
2023-09-11T20:45:19.156Z,6.50
2023-09-11T20:47:45.693Z,5.95
2023-09-11T20:50:12.250Z,6.38
2023-09-11T20:52:38.733Z,6.15
2023-09-11T20:55:06.286Z,5.68
2023-09-11T20:57:32.921Z,6.35
2023-09-11T20:59:59.463Z,6.25
2023-09-11T21:02:25.962Z,6.40
2023-09-11T21:04:52.550Z,6.03
2023-09-11T21:07:19.030Z,5.80
2023-09-11T21:09:45.477Z,6.20
2023-09-11T21:12:11.966Z,5.95
2023-09-11T21:14:38.468Z,5.82
2023-09-11T21:17:04.925Z,5.60
2023-09-11T21:19:31.437Z,5.65
2023-09-11T21:21:57.924Z,5.68
2023-09-11T21:24:24.413Z,5.80
2023-09-11T21:26:50.942Z,5.80
2023-09-11T21:29:17.396Z,5.45
2023-09-11T21:31:43.871Z,5.35
2023-09-11T21:34:10.356Z,5.32
2023-09-11T21:36:36.855Z,5.00
2023-09-11T21:39:03.708Z,5.00
2023-09-11T21:41:30.220Z,5.10
2023-09-11T21:43:56.674Z,5.10
2023-09-11T21:46:23.143Z,5.03
2023-09-11T21:48:49.710Z,4.72
2023-09-11T21:51:16.288Z,5.10
2023-09-11T21:53:42.764Z,4.95
2023-09-11T21:56:09.228Z,5.40
2023-09-11T21:58:35.736Z,5.20
2023-09-11T22:01:04.024Z,4.85
2023-09-11T22:03:31.065Z,4.88
2023-09-11T22:05:57.715Z,4.50
2023-09-11T22:08:24.576Z,4.72
2023-09-11T22:10:51.032Z,5.10
2023-09-11T22:13:17.458Z,4.88
2023-09-11T22:15:45.367Z,5.30
2023-09-11T22:18:11.877Z,5.68
2023-09-11T22:20:38.350Z,5.18
2023-09-11T22:23:04.794Z,5.25
2023-09-11T22:25:31.295Z,4.82
2023-09-11T22:27:57.781Z,5.55
2023-09-11T22:30:24.344Z,5.32
2023-09-11T22:32:56.253Z,5.25
2023-09-11T22:35:24.409Z,5.03
2023-09-11T22:37:51.810Z,4.93
2023-09-11T22:40:18.309Z,5.30
2023-09-11T22:42:44.773Z,5.47
2023-09-11T22:45:11.481Z,5.40
2023-09-11T22:47:38.043Z,5.00
2023-09-11T22:50:04.907Z,5.32
2023-09-11T22:52:31.355Z,5.28
2023-09-11T22:54:57.807Z,5.15
2023-09-11T22:57:24.330Z,5.45
2023-09-11T22:59:50.840Z,4.88
2023-09-11T23:02:17.480Z,4.90
2023-09-11T23:04:44.004Z,4.82
2023-09-11T23:07:10.527Z,4.93
2023-09-11T23:09:37.048Z,4.97
2023-09-11T23:12:03.819Z,5.20
2023-09-11T23:14:30.275Z,5.20
2023-09-11T23:16:56.704Z,4.95
2023-09-11T23:19:23.538Z,5.07
2023-09-11T23:21:50.017Z,5.30
2023-09-11T23:24:16.482Z,4.80
2023-09-11T23:26:43.737Z,4.72
2023-09-11T23:29:11.122Z,4.93
2023-09-11T23:31:37.956Z,5.32
2023-09-11T23:34:04.504Z,5.00
2023-09-11T23:36:30.990Z,4.70
2023-09-11T23:38:57.513Z,5.40
2023-09-11T23:41:26.471Z,4.97
2023-09-11T23:43:53.120Z,5.28
2023-09-11T23:46:19.811Z,4.90
2023-09-11T23:48:46.314Z,4.93
2023-09-11T23:51:13.346Z,4.75
2023-09-11T23:53:39.943Z,4.50
2023-09-11T23:56:06.409Z,4.90
2023-09-11T23:58:34.027Z,5.07
